ホワイトホース国際空港の過去48時間の天気

ホワイトホース国際空港 (Whitehorse)

現在時刻: 11/26 14:59 PST (11/26 22:59 UTC) 以下の時間は現地時間です。

過去48時間のMETAR気象情報
時間 風向 風速(m/s) 視程 気温(℃) 湿度(%) 気圧(hPa) 天気現象
26 14:00 6 10km以上 -9 79 1006
26 13:00 6 10km以上 -9 79 1005.9
26 12:00 南南西 2 10km以上 -9 85 1005.4
26 11:00 南南東 2 10km以上 -10 79 1004.1
26 10:00 南南東 4 10km以上 -9 79 1003.1
26 09:00 南南東 8 10km以上 -10 79 1001.5
26 08:00 6 10km以上 -10 85 1000.3
26 07:18 南南東 5 10km以上 -9 85 999.4
26 06:00 南南東 5 10km以上 -10 92 997.6 弱い雪
26 05:00 南南東 3 4850m -12 85 997.2 弱い雪
26 04:11 1 4850m -15 92 997.3 弱い雪
26 03:52 不定 1 4000m -15 85 997 弱い雪
26 03:34 南南東 2 4850m -15 85 996.4 弱い雪
26 03:22 南東 3 2400m -15 78 996.1 弱い雪
26 03:13 南西 1 4850m -14 85 995.7 弱い雪
26 03:00 西 3 2400m -14 85 995.6 弱い雪
26 02:39 不定 1 3200m -16 85 995.4 弱い雪
26 02:32 静穏 0 1600m -16 85 995.5 弱い雪
26 02:00 不定 1 10km以上 -16 85 995 弱い雪
26 01:00 南南西 2 10km以上 -19 84 993.9 弱い雪
26 00:52 静穏 0 10km以上 -18 84 993.9 弱い雪
26 00:00 不定 1 10km以上 -19 84 993.7
25 23:32 南西 1 10km以上 -18 84 993.6
25 23:00 西南西 2 10km以上 -18 84 993.5 細氷
25 22:35 2 10km以上 -18 84 993.2 細氷
25 22:00 南西 2 10km以上 -18 84 993
25 21:00 静穏 0 10km以上 -15 85 992.2
25 20:00 西 2 10km以上 -12 85 990.6
25 19:00 西 3 10km以上 -12 78 989.4
25 18:00 静穏 0 10km以上 -12 85 987.9
25 17:00 西北西 2 10km以上 -12 85 986.3
25 16:53 北西 2 10km以上 -12 85 986.4
25 16:00 3 4850m -12 85 985.8 弱い雪
25 15:00 2 6450m -12 85 984.9 弱い雪
25 14:00 3 10km以上 -12 85 984.7 弱い雪
25 13:00 不定 1 10km以上 -12 85 984.9 弱い雪
25 12:00 2 10km以上 -12 85 985.5 弱い雪
25 11:00 2 10km以上 -13 92 985.7 弱い雪
25 10:19 2 10km以上 -13 92 985.5 弱い雪
25 10:00 2 6450m -13 92 985.6 弱い雪
25 09:33 2 4850m -13 92 985.9 弱い雪
25 09:17 2 6450m -13 92 985.9 弱い雪
25 09:00 2 3200m -13 92 986 弱い雪
25 08:26 2 3200m -12 85 986 弱い雪
25 08:00 1 2400m -12 85 985.9 弱い雪
25 07:00 静穏 0 2400m -12 85 986.3 弱い雪
25 06:00 1 2400m -13 85 986.9 弱い雪
25 05:00 2 2400m -13 85 987.4 弱い雪
25 04:32 2 2400m -13 85 987.7 弱い雪
25 04:20 2 3200m -13 85 987.8 弱い雪
25 04:12 2 6450m -13 85 987.9 弱い雪
25 04:00 北北西 2 4850m -13 85 988.1 弱い雪
25 03:52 北北西 2 10km以上 -13 85 988.3 弱い雪
25 03:44 北北西 2 10km以上 -13 85 988.4 弱い雪
25 03:00 北北西 2 10km以上 -14 85 988.6
25 02:00 2 10km以上 -14 85 988.8 弱い雪
25 01:43 2 10km以上 -14 85 988.9 弱い雪
25 01:00 北北西 2 10km以上 -14 85 989.1
25 00:30 2 10km以上 -14 85 989.4
25 00:00 2 10km以上 -15 85 989.7
24 23:34 北北東 3 10km以上 -15 92 989.9
24 23:00 3 10km以上 -14 92 989.9
24 22:00 不定 1 10km以上 -14 85 990.2
24 21:30 不定 1 10km以上 -14 85 990.6
24 21:00 不定 1 10km以上 -14 85 990.7
24 20:00 北西 1 10km以上 -13 92 991
24 19:00 南南東 2 10km以上 -11 92 991
24 18:00 不定 1 10km以上 -11 85 991.4
24 17:00 2 10km以上 -10 85 991.8
24 16:22 3 10km以上 -10 85 992.3
24 16:00 南南西 3 10km以上 -10 85 992.6 弱い雪
24 15:00 2 10km以上 -9 79 993.2 弱い雪
CYXY 262200Z 17012KT 40SM FEW020 FEW070 M09/M12 A2953 RMK CU1AC1 CU TR SLP060
CYXY 262100Z 17011KT 20SM SCT070 BKN120 M09/M12 A2952 RMK AC3AC2 SLP059
CYXY 262000Z 20004KT 150V300 20SM BKN070 BKN120 M09/M11 A2951 RMK AC5AC1 SLP054
CYXY 261900Z 16004KT 20SM BKN070 BKN120 M10/M13 A2947 RMK AC5AC1 SLP041
CYXY 261800Z 15008KT 20SM SCT060 BKN120 M09/M12 A2944 RMK SC4AC2 SLP031
CYXY 261700Z 16015KT 20SM SCT060 BKN140 M10/M13 A2940 RMK SC3AC3 SLP015
CYXY 261600Z 17012KT 15SM FEW040 SCT140 M10/M12 A2937 RMK SC2AC2 SLP003
CYXY 261518Z 15009KT 15SM FEW040 SCT140 M09/M11 A2935 RMK SC2AC2 SLP994
CYXY 261400Z 16010KT 6SM -SN FEW020 SCT040 OVC120 M10/M11 A2930 RMK SC2SC2AC4 SLP976
CYXY 261300Z CCA 16006KT 150V240 3SM -SN SCT020 BKN040 OVC120 M12/M14 A2928 RMK SC3SC2AC3 SLP972
CYXY 261211Z 18002KT 3SM -SN BKN022 OVC042 M15/M16 A2928 RMK SN3SC3SC2 SLP973
CYXY 261152Z VRB02KT 2 1/2SM -SN OVC022 M15/M17 A2927 RMK SN4SC4 PRESRR SLP970
CYXY 261134Z 15003KT 3SM -SN BKN022 OVC042 M15/M17 A2925 RMK SN3SC4SC1 SLP964
CYXY 261122Z 14006KT 130V240 1 1/2SM -SN VV007 M15/M18 A2924 RMK SN8 SLP961
CYXY 261113Z 22002KT 3SM -SN OVC020 M14/M16 A2923 RMK SN3SC5 SLP957
CYXY 261100Z 26006KT 1 1/2SM -SN VV008 M14/M16 A2923 RMK SN8 SLP956
CYXY 261039Z VRB02KT 2SM -SN OVC022 M16/M18 A2922 RMK SN6SC2 SLP954
CYXY 261032Z 00000KT 1SM R32L/P6000FT/D -SN VV004 M16/M18 A2922 RMK SN8 SLP955
CYXY 261000Z VRB02KT 15SM -SN SCT024 BKN042 OVC080 M16/M18 A2920 RMK SC3SC4AC1 SLP950
CYXY 260900Z 21003KT 200V350 15SM -SN BKN043 M19/M21 A2917 RMK SC5 SLP939
CYXY 260852Z 00000KT 15SM -SN BKN045 M18/M20 A2917 RMK SC5 SLP939
CYXY 260800Z VRB02KT 15SM FEW140 M19/M21 A2916 RMK AC2 SLP937
CYXY 260732Z 23002KT 15SM FEW140 M18/M20 A2916 RMK AC1 SLP936
CYXY 260700Z 25003KT 200V260 15SM IC FEW140 M18/M20 A2916 RMK AC1 SLP935
CYXY 260635Z 18003KT 130V190 15SM IC FEW025 SCT140 M18/M20 A2915 RMK SC1AC2 SLP932
CYXY 260600Z 23004KT 15SM FEW025 M18/M20 A2914 RMK SC2 SLP930
CYXY 260500Z 00000KT 15SM FEW160 M15/M17 A2912 RMK AC2 SLP922
CYXY 260400Z 27004KT 240V330 15SM BKN160 M12/M14 A2909 RMK AC5 SLP906
CYXY 260300Z 27006KT 15SM BKN140 M12/M15 A2905 RMK AC7 SLP894
CYXY 260200Z 00000KT 15SM OVC090 M12/M14 A2901 RMK AC8 SLP879
CYXY 260100Z 29003KT 270V340 20SM SCT035 OVC073 M12/M14 A2896 RMK SC3AC5 SLP863
CYXY 260053Z 32004KT 20SM SCT035 OVC067 M12/M14 A2896 RMK SC3AC5 SLP864
CYXY 260000Z 36005KT 330V030 3SM -SN SCT015 OVC027 M12/M14 A2895 RMK SC3SC5 SLP858
CYXY 252300Z 36004KT 4SM -SN BKN024 OVC045 M12/M14 A2892 RMK SC6SC2 SLP849
CYXY 252200Z 35006KT 6SM -SN BKN025 OVC045 M12/M14 A2891 RMK SC5SC3 /S01/ SLP847
CYXY 252100Z VRB02KT 6SM -SN BKN020 OVC060 M12/M14 A2892 RMK SC6SC2 SLP849
CYXY 252000Z 35004KT 330V030 10SM -SN BKN020 OVC070 M12/M14 A2893 RMK SC6AC2 SLP855
CYXY 251900Z 36003KT 15SM -SN BKN020 BKN070 M13/M14 A2894 RMK SC6AC1 SLP857
CYXY 251819Z 36004KT 340V050 6SM -SN SCT020 BKN040 BKN080 M13/M14 A2894 RMK SC4SC2AC1 SLP855
CYXY 251800Z 01003KT 340V070 4SM -SN BKN013 OVC030 M13/M14 A2894 RMK SC6SC2 SLP856
CYXY 251733Z 01003KT 3SM -SN BKN013 OVC030 M13/M14 A2894 RMK SC6SC2 SLP859
CYXY 251717Z 35004KT 4SM -SN BKN045 OVC070 M13/M14 A2894 RMK SC6AC2 SLP859
CYXY 251700Z 35003KT 2SM -SN VV010 M13/M14 A2895 RMK SN8 /S04/ SLP860
CYXY 251626Z 36003KT 2SM -SN VV018 M12/M14 A2895 RMK SN8 SLP860
CYXY 251600Z 36002KT 1 1/2SM -SN VV009 M12/M14 A2895 RMK SN8 /S03/ SLP859
CYXY 251500Z 00000KT 1 1/2SM -SN VV008 M12/M14 A2897 RMK SN8 /S02/ SLP863
CYXY 251400Z 35002KT 1 1/2SM -SN VV008 M13/M15 A2898 RMK SN8 SLP869
CYXY 251300Z 35004KT 1 1/2SM -SN VV009 M13/M15 A2900 RMK SN8 SLP874
CYXY 251232Z 35004KT 1 1/2SM -SN VV008 M13/M15 A2901 RMK SN8 SLP877
CYXY 251220Z 36004KT 2SM -SN OVC012 M13/M15 A2901 RMK SN6SC2 SLP878
CYXY 251212Z 36003KT 310V020 4SM -SN SCT005 BKN011 OVC024 M13/M15 A2901 RMK SF4SC3SC1 SLP879
CYXY 251200Z 34004KT 3SM -SN BKN005 OVC011 M13/M15 A2902 RMK SF5SC3 SLP881
CYXY 251152Z 34003KT 10SM -SN BKN005 OVC010 M13/M15 A2902 RMK SF5ST3 SLP883
CYXY 251144Z 34004KT 15SM -SN SCT005 OVC010 M13/M15 A2903 RMK SF4ST4 SLP884
CYXY 251100Z 34003KT 15SM SCT004 BKN010 OVC020 M14/M16 A2903 RMK SF4ST3SC1 SLP886
CYXY 251000Z 35004KT 15SM -SN FEW003 BKN008 OVC020 M14/M16 A2904 RMK SF1ST5SC2 SLP888
CYXY 250943Z 36004KT 300V020 15SM -SN BKN008 OVC021 M14/M16 A2904 RMK ST6SC2 SLP889
CYXY 250900Z 34004KT 15SM BKN008 OVC020 M14/M16 A2905 RMK SF6SC2 SLP891
CYXY 250830Z 35004KT 15SM BKN008 BKN020 OVC150 M14/M16 A2905 RMK SF5SC2AC1 SLP894
CYXY 250800Z 01004KT 15SM SCT007 BKN021 OVC150 M15/M17 A2906 RMK SF3SC3AC2 SLP897
CYXY 250734Z 02005KT 15SM FEW008 BKN020 BKN170 M15/M16 A2906 WS RWY14R RMK SF1SC4AC2 SLP899
CYXY 250700Z 36006KT 15SM FEW020 SCT055 BKN170 M14/M15 A2907 RMK SC1SC3AC2 SLP899
CYXY 250600Z VRB02KT 15SM FEW009 FEW022 SCT055 BKN220 M14/M16 A2907 RMK SF1SC1SC3CI2 SF TR SLP902
CYXY 250530Z VRB02KT 15SM FEW009 SCT022 BKN220 M14/M16 A2908 RMK SF1SC2CI2 SLP906
CYXY 250500Z VRB02KT 15SM SCT022 BKN240 M14/M16 A2909 RMK SC3CI2 SLP907
CYXY 250400Z 31002KT 15SM FEW020 SCT240 M13/M14 A2910 RMK SC2CI2 SLP910
CYXY 250300Z 16004KT 120V210 15SM FEW020 SCT240 M11/M12 A2911 RMK SC1CI3 SLP910
CYXY 250200Z VRB02KT 15SM FEW020 M11/M13 A2912 RMK SC2 SLP914
CYXY 250100Z 19004KT 20SM SCT022 BKN030 M10/M12 A2913 RMK SC4SC3 SLP918
CYXY 250022Z 19006KT 20SM SCT025 BKN032 BKN065 M10/M12 A2914 RMK SC3SC3SC1 SLP923
CYXY 250000Z 21005KT 20SM -SN BKN026 BKN065 M10/M12 A2915 RMK SC6SC1 SLP926
CYXY 242300Z 19003KT 160V240 20SM -SN BKN026 BKN065 M09/M12 A2917 RMK SC5SC2 SLP932